createdAt,value
2019-02-22T00:01:21.238Z,41.42
2019-02-22T00:03:49.535Z,40.78
2019-02-22T00:06:17.834Z,41.18
2019-02-22T00:08:46.081Z,40.28
2019-02-22T00:11:14.338Z,41.53
2019-02-22T00:13:42.680Z,40.50
2019-02-22T00:16:11.110Z,40.38
2019-02-22T00:18:39.366Z,41.73
2019-02-22T00:21:07.687Z,40.98
2019-02-22T00:23:36.019Z,40.12
2019-02-22T00:26:04.355Z,40.52
2019-02-22T00:28:32.602Z,42.50
2019-02-22T00:31:00.843Z,41.80
2019-02-22T00:33:29.130Z,41.28
2019-02-22T00:35:57.445Z,39.85
2019-02-22T00:38:27.124Z,39.20
2019-02-22T00:40:55.496Z,39.38
2019-02-22T00:43:23.773Z,37.38
2019-02-22T00:45:52.048Z,40.80
2019-02-22T00:48:20.330Z,41.35
2019-02-22T00:50:48.577Z,42.65
2019-02-22T00:53:16.839Z,39.95
2019-02-22T00:55:45.106Z,39.85
2019-02-22T00:58:13.412Z,39.63
2019-02-22T01:00:41.722Z,37.95
2019-02-22T01:03:10.015Z,38.35
2019-02-22T01:05:38.269Z,37.53
2019-02-22T01:08:06.514Z,37.58
2019-02-22T01:10:34.783Z,38.15
2019-02-22T01:13:03.046Z,38.45
2019-02-22T01:15:31.295Z,40.33
2019-02-22T01:17:59.604Z,38.50
2019-02-22T01:20:27.884Z,38.38
2019-02-22T01:22:56.122Z,38.95
2019-02-22T01:25:24.396Z,36.40
2019-02-22T01:27:52.633Z,37.98
2019-02-22T01:30:20.907Z,39.92
2019-02-22T01:33:08.650Z,38.35
2019-02-22T01:35:36.933Z,38.53
2019-02-22T01:38:05.190Z,38.53
2019-02-22T01:40:43.174Z,36.65
2019-02-22T01:43:16.351Z,36.20
2019-02-22T01:45:44.595Z,35.95
2019-02-22T01:48:12.855Z,36.73
2019-02-22T01:50:41.160Z,36.80
2019-02-22T01:53:09.382Z,37.95
2019-02-22T01:55:37.654Z,37.98
2019-02-22T01:58:05.902Z,37.03
2019-02-22T02:00:34.170Z,37.67
2019-02-22T02:03:02.425Z,36.75
2019-02-22T02:05:30.672Z,35.88
2019-02-22T02:07:58.918Z,36.65
2019-02-22T02:10:27.225Z,37.00
2019-02-22T02:12:55.484Z,36.73
2019-02-22T02:15:23.788Z,37.30
2019-02-22T02:17:52.023Z,36.17
2019-02-22T02:20:20.377Z,39.05
2019-02-22T02:22:48.694Z,38.53
2019-02-22T02:25:16.923Z,37.88
2019-02-22T02:27:46.477Z,37.78
2019-02-22T02:30:14.719Z,38.13
2019-02-22T02:32:42.997Z,38.90
2019-02-22T02:35:11.291Z,37.53
2019-02-22T02:37:39.643Z,37.83
2019-02-22T02:40:08.142Z,37.40
2019-02-22T02:42:36.416Z,38.63
2019-02-22T02:45:06.037Z,37.03
2019-02-22T02:47:34.397Z,39.53
2019-02-22T02:50:02.658Z,37.42
2019-02-22T02:52:30.934Z,37.60
2019-02-22T02:54:59.166Z,37.80
2019-02-22T02:57:27.428Z,35.55
2019-02-22T02:59:55.682Z,38.60
2019-02-22T03:02:25.097Z,36.35
2019-02-22T03:04:53.367Z,37.13
2019-02-22T03:07:41.477Z,36.90
2019-02-22T03:10:09.812Z,36.25
2019-02-22T03:12:38.097Z,35.35
2019-02-22T03:15:08.207Z,35.70
2019-02-22T03:17:36.441Z,35.90
2019-02-22T03:20:06.622Z,34.83
2019-02-22T03:22:34.902Z,36.35
2019-02-22T03:25:03.713Z,37.65
2019-02-22T03:27:31.945Z,37.90
2019-02-22T03:30:00.687Z,34.05
2019-02-22T03:32:29.017Z,35.78
2019-02-22T03:34:57.293Z,37.28
2019-02-22T03:37:26.624Z,36.33
2019-02-22T03:39:54.899Z,35.15
2019-02-22T03:42:23.146Z,34.90
2019-02-22T03:44:51.411Z,35.98
2019-02-22T03:47:19.645Z,38.65
2019-02-22T03:49:47.970Z,38.20
2019-02-22T03:52:34.329Z,39.08
2019-02-22T03:55:02.600Z,40.40
2019-02-22T03:57:30.841Z,39.13
2019-02-22T03:59:59.098Z,38.90
2019-02-22T04:02:27.395Z,39.38
2019-02-22T04:04:55.678Z,38.90
2019-02-22T04:07:23.941Z,38.20
2019-02-22T04:09:52.174Z,39.80
2019-02-22T04:12:20.608Z,37.05
2019-02-22T04:14:48.836Z,36.85
2019-02-22T04:17:17.101Z,40.50
2019-02-22T04:19:45.391Z,43.45
2019-02-22T04:22:13.646Z,40.03
2019-02-22T04:24:41.977Z,41.05
2019-02-22T04:27:10.240Z,39.78
2019-02-22T04:29:38.483Z,53.68
2019-02-22T04:32:06.762Z,42.48
2019-02-22T04:34:35.000Z,37.95
2019-02-22T04:37:03.266Z,51.37
2019-02-22T04:39:31.615Z,51.75
2019-02-22T04:41:59.873Z,39.40
2019-02-22T04:44:28.117Z,38.25
2019-02-22T04:46:56.380Z,39.55
2019-02-22T04:49:24.635Z,40.12
2019-02-22T04:51:52.911Z,43.50
2019-02-22T04:54:21.156Z,50.12
2019-02-22T04:56:49.443Z,49.35
2019-02-22T04:59:17.736Z,44.80
2019-02-22T05:01:46.023Z,44.70
2019-02-22T05:04:14.300Z,44.35
2019-02-22T05:06:42.535Z,40.60
2019-02-22T05:09:10.789Z,42.62
2019-02-22T05:11:39.049Z,44.08
2019-02-22T05:14:07.293Z,41.58
2019-02-22T05:16:35.528Z,43.28
2019-02-22T05:19:03.805Z,45.30
2019-02-22T05:21:32.126Z,42.33
2019-02-22T05:24:00.341Z,45.90
2019-02-22T05:26:28.596Z,45.25
2019-02-22T05:29:02.445Z,43.92
2019-02-22T05:31:30.700Z,43.48
2019-02-22T05:33:58.961Z,45.43
2019-02-22T05:36:27.221Z,45.03
2019-02-22T05:38:55.478Z,44.70
2019-02-22T05:41:23.751Z,44.70
2019-02-22T05:43:52.024Z,48.05
2019-02-22T05:46:20.317Z,47.73
2019-02-22T05:48:48.597Z,47.40
2019-02-22T05:51:16.835Z,44.27
2019-02-22T05:53:45.196Z,45.65
2019-02-22T05:56:13.451Z,47.08
2019-02-22T05:58:41.682Z,46.50
2019-02-22T06:01:09.968Z,47.38
2019-02-22T06:03:38.278Z,46.08
2019-02-22T06:06:06.618Z,46.23
2019-02-22T06:08:34.833Z,48.00
2019-02-22T06:11:03.138Z,58.80
2019-02-22T06:13:31.357Z,50.17
2019-02-22T06:15:59.628Z,50.17
2019-02-22T06:18:27.907Z,46.13
2019-02-22T06:20:56.223Z,45.28
2019-02-22T06:23:24.494Z,48.45
2019-02-22T06:25:52.758Z,50.92
2019-02-22T06:28:25.163Z,47.27
2019-02-22T06:30:53.502Z,47.03
2019-02-22T06:33:21.787Z,45.50
2019-02-22T06:35:50.061Z,48.42
2019-02-22T06:38:18.409Z,46.30
2019-02-22T06:40:48.169Z,45.48
2019-02-22T06:43:16.627Z,45.88
2019-02-22T06:45:44.976Z,44.77
2019-02-22T06:48:13.227Z,45.50
2019-02-22T06:50:41.895Z,45.92
2019-02-22T06:53:10.134Z,44.77
2019-02-22T06:55:38.426Z,43.20
2019-02-22T06:58:08.030Z,44.13
2019-02-22T07:00:36.334Z,44.10
2019-02-22T07:03:04.606Z,44.55
2019-02-22T07:05:32.851Z,46.10
2019-02-22T07:08:01.157Z,44.15
2019-02-22T07:10:31.075Z,43.40
2019-02-22T07:13:01.056Z,44.13
2019-02-22T07:15:29.326Z,46.18
2019-02-22T07:17:57.606Z,47.88
2019-02-22T07:20:25.926Z,46.95
2019-02-22T07:22:54.255Z,47.10
2019-02-22T07:25:22.657Z,47.62
2019-02-22T07:27:50.929Z,43.20
2019-02-22T07:30:19.172Z,44.33
2019-02-22T07:32:47.481Z,45.80
2019-02-22T07:35:15.848Z,44.67
2019-02-22T07:37:44.173Z,45.40
2019-02-22T07:40:12.495Z,43.58
2019-02-22T07:42:40.782Z,42.30
2019-02-22T07:45:10.503Z,43.05
2019-02-22T07:47:38.775Z,47.20
2019-02-22T07:50:09.292Z,45.70
2019-02-22T07:52:37.679Z,42.88
2019-02-22T07:55:07.498Z,43.78
2019-02-22T07:57:35.848Z,44.95
2019-02-22T08:00:10.450Z,42.85
2019-02-22T08:02:38.673Z,41.40
2019-02-22T08:05:09.072Z,40.90
2019-02-22T08:07:37.266Z,40.83
2019-02-22T08:10:06.060Z,39.73
2019-02-22T08:12:34.374Z,38.95
2019-02-22T08:15:02.757Z,41.05
2019-02-22T08:17:30.999Z,40.67
2019-02-22T08:19:59.273Z,38.35
2019-02-22T08:22:27.532Z,38.50
2019-02-22T08:24:56.612Z,36.70
2019-02-22T08:27:24.880Z,37.38
2019-02-22T08:29:53.280Z,33.80
2019-02-22T08:32:21.537Z,32.58
2019-02-22T08:34:49.932Z,34.55
2019-02-22T08:37:18.211Z,36.75
2019-02-22T08:39:57.502Z,36.70
2019-02-22T08:42:16.667Z,34.78
2019-02-22T08:44:44.927Z,33.98
2019-02-22T08:47:13.190Z,33.40
2019-02-22T08:49:41.488Z,32.28
2019-02-22T08:52:09.761Z,31.70
2019-02-22T08:54:46.697Z,33.33
2019-02-22T08:57:08.062Z,34.92
2019-02-22T08:59:36.290Z,34.13
2019-02-22T09:02:04.581Z,33.65
2019-02-22T09:04:32.846Z,32.73
2019-02-22T09:07:01.125Z,34.83
2019-02-22T09:09:29.410Z,32.50
2019-02-22T09:11:57.916Z,31.73
2019-02-22T09:14:26.383Z,27.82
2019-02-22T09:16:54.649Z,16.82
2019-02-22T09:19:22.973Z,16.30
2019-02-22T09:21:51.438Z,16.30
2019-02-22T09:24:19.715Z,15.78
2019-02-22T09:26:48.149Z,16.32
2019-02-22T09:29:16.524Z,14.90
2019-02-22T09:31:44.766Z,15.50
2019-02-22T09:34:13.093Z,14.68
2019-02-22T09:36:41.431Z,14.35
2019-02-22T09:39:09.788Z,14.78
2019-02-22T09:41:38.038Z,15.30
2019-02-22T09:44:06.297Z,14.38
2019-02-22T09:46:34.585Z,14.33
2019-02-22T09:49:02.912Z,12.80
2019-02-22T09:51:31.224Z,10.18
2019-02-22T09:53:59.481Z,7.85
2019-02-22T09:56:27.818Z,7.75
2019-02-22T09:58:56.053Z,6.80
2019-02-22T10:01:24.439Z,6.10
2019-02-22T10:03:52.722Z,6.37
2019-02-22T10:06:20.994Z,5.92
2019-02-22T10:08:49.536Z,4.78
2019-02-22T10:11:17.890Z,5.03
2019-02-22T10:13:46.162Z,4.87
2019-02-22T10:16:14.432Z,5.30
2019-02-22T10:18:42.695Z,5.00
2019-02-22T10:21:10.976Z,5.03
2019-02-22T10:23:39.244Z,4.85
2019-02-22T10:26:07.782Z,4.70
2019-02-22T10:28:36.091Z,3.98
2019-02-22T10:31:04.362Z,3.30
2019-02-22T10:33:36.821Z,3.00
2019-02-22T10:36:02.693Z,3.40
2019-02-22T10:38:33.736Z,2.90
2019-02-22T10:41:00.959Z,3.55
2019-02-22T10:43:29.266Z,2.67
2019-02-22T10:45:58.240Z,2.45
2019-02-22T10:48:26.521Z,2.45
2019-02-22T10:50:54.802Z,2.85
2019-02-22T10:53:23.076Z,3.58
2019-02-22T10:55:51.327Z,2.77
2019-02-22T10:58:19.607Z,2.12
2019-02-22T11:00:48.049Z,2.02
2019-02-22T11:03:16.306Z,2.25
2019-02-22T11:05:44.566Z,2.00
2019-02-22T11:08:12.846Z,2.10
2019-02-22T11:10:41.126Z,1.80
2019-02-22T11:13:09.388Z,2.05
2019-02-22T11:15:37.651Z,2.50
2019-02-22T11:18:05.932Z,2.02
2019-02-22T11:20:34.200Z,2.22
2019-02-22T11:23:02.534Z,2.30
2019-02-22T11:25:30.770Z,2.20
2019-02-22T11:27:59.173Z,2.58
2019-02-22T11:30:27.528Z,2.87
2019-02-22T11:32:55.810Z,2.85
2019-02-22T11:35:24.124Z,5.53
2019-02-22T11:37:52.534Z,3.40
2019-02-22T11:40:22.582Z,2.85
2019-02-22T11:42:50.849Z,3.90
2019-02-22T11:45:19.180Z,3.72
2019-02-22T11:47:47.546Z,4.45
2019-02-22T11:50:15.816Z,5.42
2019-02-22T11:52:44.078Z,4.83
2019-02-22T11:55:12.363Z,4.40
2019-02-22T11:57:40.642Z,3.90
2019-02-22T12:00:13.611Z,3.62
2019-02-22T12:02:41.886Z,6.87
2019-02-22T12:05:10.180Z,6.08
2019-02-22T12:07:38.601Z,4.40
2019-02-22T12:10:08.161Z,4.37
2019-02-22T12:12:36.430Z,7.10
2019-02-22T12:15:07.649Z,4.70
2019-02-22T12:17:35.925Z,4.95
2019-02-22T12:20:05.315Z,5.17
2019-02-22T12:22:33.634Z,4.42
2019-02-22T12:25:02.026Z,4.08
2019-02-22T12:27:30.298Z,5.00
2019-02-22T12:29:58.542Z,4.67
2019-02-22T12:32:26.840Z,4.80
2019-02-22T12:34:55.122Z,5.37
2019-02-22T12:37:23.388Z,4.58
2019-02-22T12:39:51.654Z,4.87
2019-02-22T12:42:19.911Z,4.90
2019-02-22T12:44:48.148Z,5.00
2019-02-22T12:47:16.406Z,5.42
2019-02-22T12:49:44.696Z,5.97
2019-02-22T12:52:12.944Z,6.42
2019-02-22T12:54:41.225Z,5.85
2019-02-22T12:57:09.485Z,5.40
2019-02-22T12:59:37.765Z,5.35
2019-02-22T13:02:06.064Z,5.42
2019-02-22T13:04:34.330Z,5.92
2019-02-22T13:07:02.627Z,6.12
2019-02-22T13:09:36.395Z,6.22
2019-02-22T13:12:00.894Z,5.85
2019-02-22T13:14:29.202Z,5.33
2019-02-22T13:16:57.469Z,6.17
2019-02-22T13:19:25.734Z,6.15
2019-02-22T13:21:54.007Z,6.55
2019-02-22T13:24:22.335Z,5.87
2019-02-22T13:26:50.605Z,5.95
2019-02-22T13:29:18.975Z,6.25
2019-02-22T13:31:47.248Z,6.05
2019-02-22T13:34:15.504Z,6.05
2019-02-22T13:36:43.766Z,6.70
2019-02-22T13:39:12.170Z,6.62
2019-02-22T13:41:40.477Z,6.92
2019-02-22T13:44:08.874Z,6.35
2019-02-22T13:46:37.115Z,7.12
2019-02-22T13:49:05.417Z,7.40
2019-02-22T13:51:34.152Z,6.55
2019-02-22T13:54:02.520Z,6.80
2019-02-22T13:56:30.799Z,7.08
2019-02-22T13:58:59.035Z,7.15
2019-02-22T14:01:27.313Z,6.62
2019-02-22T14:03:55.776Z,6.55
2019-02-22T14:06:24.770Z,6.58
2019-02-22T14:08:53.164Z,8.05
2019-02-22T14:11:21.433Z,7.47
2019-02-22T14:13:49.688Z,7.50
2019-02-22T14:16:17.970Z,6.87
2019-02-22T14:18:46.229Z,6.30
2019-02-22T14:21:14.495Z,7.55
2019-02-22T14:23:42.782Z,7.28
2019-02-22T14:26:11.073Z,7.50
2019-02-22T14:28:39.384Z,6.90
2019-02-22T14:31:10.513Z,7.58
2019-02-22T14:33:38.835Z,7.05
2019-02-22T14:36:07.097Z,7.65
2019-02-22T14:38:35.331Z,7.03
2019-02-22T14:41:03.652Z,6.60
2019-02-22T14:43:31.925Z,7.67
2019-02-22T14:46:00.247Z,7.33
2019-02-22T14:48:28.490Z,6.72
2019-02-22T14:50:57.597Z,6.90
2019-02-22T14:53:25.892Z,6.85
2019-02-22T14:55:54.298Z,6.92
2019-02-22T14:58:22.596Z,6.60
2019-02-22T15:00:51.032Z,6.62
2019-02-22T15:03:19.338Z,6.78
2019-02-22T15:05:49.274Z,6.40
2019-02-22T15:08:17.643Z,6.55
2019-02-22T15:10:45.919Z,6.58
2019-02-22T15:13:16.810Z,6.50
2019-02-22T15:16:00.143Z,6.10
2019-02-22T15:18:21.890Z,6.17
2019-02-22T15:20:50.184Z,7.45
2019-02-22T15:23:18.422Z,7.22
2019-02-22T15:25:46.690Z,7.30
2019-02-22T15:28:14.965Z,7.75
2019-02-22T15:30:45.179Z,7.35
2019-02-22T15:33:13.258Z,7.40
2019-02-22T15:35:41.534Z,7.53
2019-02-22T15:38:10.226Z,7.95
2019-02-22T15:40:39.382Z,8.15
2019-02-22T15:43:07.797Z,8.00
2019-02-22T15:45:36.123Z,7.75
2019-02-22T15:48:04.387Z,7.80
2019-02-22T15:50:32.662Z,7.45
2019-02-22T15:53:00.952Z,7.60
2019-02-22T15:55:30.601Z,6.80
2019-02-22T15:57:58.923Z,6.85
2019-02-22T16:00:40.575Z,7.65
2019-02-22T16:03:09.171Z,6.35
2019-02-22T16:05:45.221Z,5.87
2019-02-22T16:08:13.490Z,6.30
2019-02-22T16:10:41.778Z,6.30
2019-02-22T16:13:10.049Z,5.92
2019-02-22T16:15:40.632Z,6.15
2019-02-22T16:18:08.335Z,5.28
2019-02-22T16:20:36.579Z,6.00
2019-02-22T16:23:04.853Z,5.75
2019-02-22T16:25:33.785Z,5.53
2019-02-22T16:28:02.279Z,5.45
2019-02-22T16:30:32.278Z,5.05
2019-02-22T16:33:00.514Z,5.35
2019-02-22T16:35:28.837Z,5.60
2019-02-22T16:37:57.089Z,5.10
2019-02-22T16:40:25.411Z,6.10
2019-02-22T16:42:53.706Z,5.20
2019-02-22T16:45:21.960Z,5.35
2019-02-22T16:47:50.242Z,7.55
2019-02-22T16:50:18.493Z,6.17
2019-02-22T16:52:46.872Z,6.58
2019-02-22T16:55:15.927Z,5.78
2019-02-22T16:57:44.203Z,5.83
2019-02-22T17:00:14.270Z,6.25
2019-02-22T17:02:42.571Z,5.60
2019-02-22T17:05:13.282Z,5.70
2019-02-22T17:07:41.576Z,5.40
2019-02-22T17:10:10.894Z,6.37
2019-02-22T17:12:39.201Z,6.00
2019-02-22T17:15:12.493Z,6.15
2019-02-22T17:17:40.768Z,6.28
2019-02-22T17:20:11.849Z,5.55
2019-02-22T17:22:40.074Z,5.90
2019-02-22T17:25:16.525Z,5.72
2019-02-22T17:27:44.784Z,6.05
2019-02-22T17:30:17.992Z,5.22
2019-02-22T17:32:46.278Z,5.58
2019-02-22T17:35:14.514Z,5.75
2019-02-22T17:37:42.811Z,6.08
2019-02-22T17:40:18.653Z,5.70
2019-02-22T17:42:47.077Z,8.88
2019-02-22T17:45:15.376Z,5.45
2019-02-22T17:47:43.607Z,6.10
2019-02-22T17:50:11.924Z,6.40
2019-02-22T17:52:40.206Z,6.78
2019-02-22T17:55:09.477Z,6.62
2019-02-22T17:57:37.721Z,6.62
2019-02-22T18:00:17.932Z,6.62
2019-02-22T18:02:46.241Z,5.85
2019-02-22T18:05:14.493Z,5.65
2019-02-22T18:07:42.738Z,5.58
2019-02-22T18:10:11.569Z,5.70
2019-02-22T18:12:39.807Z,5.87
2019-02-22T18:15:12.924Z,6.62
2019-02-22T18:20:09.766Z,6.45
2019-02-22T18:22:38.035Z,6.97
2019-02-22T18:25:08.236Z,6.67
2019-02-22T18:27:36.502Z,6.30
2019-02-22T18:30:10.864Z,6.33
2019-02-22T18:32:39.113Z,6.25
2019-02-22T18:35:10.978Z,7.60
2019-02-22T18:37:39.226Z,8.35
2019-02-22T18:40:15.869Z,9.23
2019-02-22T18:42:44.307Z,10.00
2019-02-22T18:45:14.226Z,8.10
2019-02-22T18:47:42.503Z,7.72
2019-02-22T18:50:11.122Z,7.40
2019-02-22T18:52:39.394Z,8.20
2019-02-22T18:55:12.382Z,7.22
2019-02-22T18:57:40.610Z,8.03
2019-02-22T19:00:13.446Z,9.15
2019-02-22T19:02:41.736Z,8.15
2019-02-22T19:05:11.200Z,6.95
2019-02-22T19:07:39.475Z,7.17
2019-02-22T19:10:10.483Z,6.30
2019-02-22T19:12:40.906Z,6.53
2019-02-22T19:15:11.484Z,6.78
2019-02-22T19:17:39.751Z,5.87
2019-02-22T19:20:16.280Z,7.40
2019-02-22T19:22:44.576Z,6.33
2019-02-22T19:25:12.885Z,6.72
2019-02-22T19:27:41.143Z,7.15
2019-02-22T19:30:14.435Z,7.17
2019-02-22T19:32:42.696Z,7.40
2019-02-22T19:35:10.974Z,5.85
2019-02-22T19:37:39.283Z,7.03
2019-02-22T19:40:16.246Z,7.62
2019-02-22T19:42:44.536Z,7.53
2019-02-22T19:45:12.795Z,7.35
2019-02-22T19:47:42.233Z,8.35
2019-02-22T19:50:12.554Z,8.13
2019-02-22T19:52:40.803Z,8.55
2019-02-22T19:55:11.316Z,7.75
2019-02-22T19:57:39.551Z,8.48
2019-02-22T20:00:10.783Z,9.30
2019-02-22T20:02:39.055Z,8.23
2019-02-22T20:05:08.763Z,8.43
2019-02-22T20:07:37.011Z,7.92
2019-02-22T20:10:17.306Z,7.80
2019-02-22T20:12:38.975Z,7.60
2019-02-22T20:15:10.530Z,8.25
2019-02-22T20:17:40.353Z,8.00
2019-02-22T20:20:11.497Z,8.73
2019-02-22T20:22:39.815Z,9.98
2019-02-22T20:25:09.907Z,8.73
2019-02-22T20:27:38.180Z,8.28
2019-02-22T20:30:12.709Z,8.33
2019-02-22T20:32:41.168Z,8.10
2019-02-22T20:35:12.647Z,8.13
2019-02-22T20:37:40.930Z,7.55
2019-02-22T20:40:09.699Z,7.05
2019-02-22T20:42:37.935Z,7.00
2019-02-22T20:45:10.529Z,7.50
2019-02-22T20:47:38.955Z,7.87
2019-02-22T20:50:11.559Z,7.72
2019-02-22T20:52:42.555Z,6.75
2019-02-22T20:55:11.522Z,6.90
2019-02-22T20:57:39.780Z,7.58
2019-02-22T21:00:16.815Z,7.00
2019-02-22T21:02:45.296Z,7.17
2019-02-22T21:05:13.566Z,7.20
2019-02-22T21:07:43.885Z,7.80
2019-02-22T21:10:19.858Z,7.12
2019-02-22T21:12:48.301Z,7.05
2019-02-22T21:15:16.609Z,6.92
2019-02-22T21:17:44.889Z,6.58
2019-02-22T21:20:21.484Z,6.83
2019-02-22T21:22:49.758Z,7.28
2019-02-22T21:25:18.020Z,6.62
2019-02-22T21:27:46.370Z,6.80
2019-02-22T21:30:15.883Z,6.60
2019-02-22T21:32:45.745Z,6.90
2019-02-22T21:35:14.015Z,6.75
2019-02-22T21:37:43.085Z,6.97
2019-02-22T21:40:12.318Z,6.42
2019-02-22T21:42:40.564Z,6.95
2019-02-22T21:45:12.090Z,6.67
2019-02-22T21:47:40.362Z,6.65
2019-02-22T21:50:11.113Z,6.30
2019-02-22T21:52:39.381Z,6.15
2019-02-22T21:55:10.089Z,6.25
2019-02-22T21:57:38.334Z,6.10
2019-02-22T22:00:12.302Z,6.45
2019-02-22T22:02:40.630Z,6.37
2019-02-22T22:05:08.880Z,6.33
2019-02-22T22:07:37.151Z,6.35
2019-02-22T22:10:07.603Z,6.45
2019-02-22T22:12:35.938Z,6.12
2019-02-22T22:15:06.520Z,6.60
2019-02-22T22:17:34.791Z,6.17
2019-02-22T22:20:03.984Z,5.87
2019-02-22T22:22:32.296Z,6.45
2019-02-22T22:25:00.613Z,6.12
2019-02-22T22:27:28.894Z,6.05
2019-02-22T22:29:57.130Z,5.83
2019-02-22T22:32:25.421Z,6.45
2019-02-22T22:34:53.727Z,6.40
2019-02-22T22:37:23.329Z,6.67
2019-02-22T22:39:51.564Z,6.83
2019-02-22T22:42:19.862Z,7.10
2019-02-22T22:44:48.161Z,7.25
2019-02-22T22:47:16.516Z,7.47
2019-02-22T22:49:44.779Z,6.40
2019-02-22T22:52:13.106Z,7.25
2019-02-22T22:54:41.350Z,7.35
2019-02-22T22:57:09.626Z,7.83
2019-02-22T22:59:37.903Z,7.10
2019-02-22T23:02:09.133Z,7.00
2019-02-22T23:04:37.374Z,7.50
2019-02-22T23:07:05.614Z,8.30
2019-02-22T23:09:33.837Z,8.28
2019-02-22T23:12:02.115Z,7.28
2019-02-22T23:14:30.365Z,8.38
2019-02-22T23:16:58.648Z,7.83
2019-02-22T23:19:26.918Z,8.15
2019-02-22T23:21:55.183Z,7.58
2019-02-22T23:24:23.413Z,8.18
2019-02-22T23:26:51.690Z,8.20
2019-02-22T23:29:19.917Z,8.18
2019-02-22T23:31:48.211Z,8.60
2019-02-22T23:34:16.491Z,8.93
2019-02-22T23:36:50.254Z,8.88
2019-02-22T23:39:18.523Z,9.93
2019-02-22T23:41:46.786Z,8.80
2019-02-22T23:44:15.086Z,9.10
2019-02-22T23:46:43.375Z,9.63
2019-02-22T23:49:13.305Z,9.98
2019-02-22T23:51:41.620Z,10.05
2019-02-22T23:54:09.888Z,10.72
2019-02-22T23:56:38.161Z,11.80
2019-02-22T23:59:06.484Z,11.40
